sensor_id;sensor_type;location;lat;lon;timestamp;P1;durP1;ratioP1;P2;durP2;ratioP2
7997;SDS011;4044;49.814;7.828;2023-04-06T00:00:52;8.80;;;7.90;;
7997;SDS011;4044;49.814;7.828;2023-04-06T00:03:17;14.17;;;8.03;;
7997;SDS011;4044;49.814;7.828;2023-04-06T00:05:43;10.53;;;7.87;;
7997;SDS011;4044;49.814;7.828;2023-04-06T00:08:08;10.67;;;8.60;;
7997;SDS011;4044;49.814;7.828;2023-04-06T00:10:34;9.73;;;7.93;;
7997;SDS011;4044;49.814;7.828;2023-04-06T00:13:00;9.13;;;7.60;;
7997;SDS011;4044;49.814;7.828;2023-04-06T00:15:26;8.67;;;7.77;;
7997;SDS011;4044;49.814;7.828;2023-04-06T00:17:51;11.23;;;7.27;;
7997;SDS011;4044;49.814;7.828;2023-04-06T00:20:17;10.13;;;7.93;;
7997;SDS011;4044;49.814;7.828;2023-04-06T00:22:43;8.87;;;7.83;;
7997;SDS011;4044;49.814;7.828;2023-04-06T00:25:09;9.63;;;7.77;;
7997;SDS011;4044;49.814;7.828;2023-04-06T00:27:36;10.17;;;8.33;;
7997;SDS011;4044;49.814;7.828;2023-04-06T00:30:03;8.20;;;7.10;;
7997;SDS011;4044;49.814;7.828;2023-04-06T00:32:29;8.07;;;7.03;;
7997;SDS011;4044;49.814;7.828;2023-04-06T00:34:55;10.27;;;7.70;;
7997;SDS011;4044;49.814;7.828;2023-04-06T00:37:21;9.40;;;7.10;;
7997;SDS011;4044;49.814;7.828;2023-04-06T00:39:46;9.97;;;7.33;;
7997;SDS011;4044;49.814;7.828;2023-04-06T00:42:12;7.50;;;6.80;;
7997;SDS011;4044;49.814;7.828;2023-04-06T00:44:39;7.73;;;6.20;;
7997;SDS011;4044;49.814;7.828;2023-04-06T00:47:05;8.00;;;7.20;;
7997;SDS011;4044;49.814;7.828;2023-04-06T00:49:31;8.97;;;8.07;;
7997;SDS011;4044;49.814;7.828;2023-04-06T00:51:57;8.63;;;7.70;;
7997;SDS011;4044;49.814;7.828;2023-04-06T00:54:23;8.70;;;7.73;;
7997;SDS011;4044;49.814;7.828;2023-04-06T00:56:48;8.37;;;7.23;;
7997;SDS011;4044;49.814;7.828;2023-04-06T00:59:14;8.00;;;7.30;;
7997;SDS011;4044;49.814;7.828;2023-04-06T01:01:40;8.30;;;7.40;;
7997;SDS011;4044;49.814;7.828;2023-04-06T01:04:06;8.53;;;7.73;;
7997;SDS011;4044;49.814;7.828;2023-04-06T01:06:31;9.77;;;8.17;;
7997;SDS011;4044;49.814;7.828;2023-04-06T01:08:57;9.10;;;7.70;;
7997;SDS011;4044;49.814;7.828;2023-04-06T01:11:23;8.40;;;7.57;;
7997;SDS011;4044;49.814;7.828;2023-04-06T01:13:48;9.07;;;8.17;;
7997;SDS011;4044;49.814;7.828;2023-04-06T01:16:14;9.53;;;8.37;;
7997;SDS011;4044;49.814;7.828;2023-04-06T01:18:40;8.37;;;7.53;;
7997;SDS011;4044;49.814;7.828;2023-04-06T01:21:07;9.43;;;8.33;;
7997;SDS011;4044;49.814;7.828;2023-04-06T01:23:33;7.50;;;6.80;;
7997;SDS011;4044;49.814;7.828;2023-04-06T01:25:59;8.00;;;7.20;;
7997;SDS011;4044;49.814;7.828;2023-04-06T01:28:25;8.10;;;7.27;;
7997;SDS011;4044;49.814;7.828;2023-04-06T01:30:50;7.57;;;6.87;;
7997;SDS011;4044;49.814;7.828;2023-04-06T01:33:16;9.00;;;7.17;;
7997;SDS011;4044;49.814;7.828;2023-04-06T01:35:41;9.00;;;8.10;;
7997;SDS011;4044;49.814;7.828;2023-04-06T01:38:07;9.70;;;8.10;;
7997;SDS011;4044;49.814;7.828;2023-04-06T01:40:32;9.20;;;8.13;;
7997;SDS011;4044;49.814;7.828;2023-04-06T01:42:58;8.97;;;8.07;;
7997;SDS011;4044;49.814;7.828;2023-04-06T01:45:24;8.93;;;7.70;;
7997;SDS011;4044;49.814;7.828;2023-04-06T01:47:50;9.10;;;7.70;;
7997;SDS011;4044;49.814;7.828;2023-04-06T01:50:15;8.37;;;7.50;;
7997;SDS011;4044;49.814;7.828;2023-04-06T01:52:41;9.73;;;8.17;;
7997;SDS011;4044;49.814;7.828;2023-04-06T01:55:06;9.60;;;7.77;;
7997;SDS011;4044;49.814;7.828;2023-04-06T01:57:32;7.90;;;7.20;;
7997;SDS011;4044;49.814;7.828;2023-04-06T01:59:58;8.27;;;7.47;;
7997;SDS011;4044;49.814;7.828;2023-04-06T02:02:23;8.83;;;7.57;;
7997;SDS011;4044;49.814;7.828;2023-04-06T02:04:49;8.23;;;7.27;;
7997;SDS011;4044;49.814;7.828;2023-04-06T02:07:15;8.07;;;7.27;;
7997;SDS011;4044;49.814;7.828;2023-04-06T02:09:41;8.70;;;7.80;;
7997;SDS011;4044;49.814;7.828;2023-04-06T02:12:06;7.43;;;6.73;;
7997;SDS011;4044;49.814;7.828;2023-04-06T02:14:32;8.83;;;7.93;;
7997;SDS011;4044;49.814;7.828;2023-04-06T02:16:58;11.93;;;7.70;;
7997;SDS011;4044;49.814;7.828;2023-04-06T02:19:23;9.10;;;8.10;;
7997;SDS011;4044;49.814;7.828;2023-04-06T02:21:49;10.77;;;8.37;;
7997;SDS011;4044;49.814;7.828;2023-04-06T02:24:14;9.57;;;8.57;;
7997;SDS011;4044;49.814;7.828;2023-04-06T02:26:40;9.50;;;8.37;;
7997;SDS011;4044;49.814;7.828;2023-04-06T02:29:05;9.83;;;8.43;;
7997;SDS011;4044;49.814;7.828;2023-04-06T02:31:32;8.87;;;7.97;;
7997;SDS011;4044;49.814;7.828;2023-04-06T02:33:57;9.57;;;8.37;;
7997;SDS011;4044;49.814;7.828;2023-04-06T02:36:23;9.70;;;8.73;;
7997;SDS011;4044;49.814;7.828;2023-04-06T02:38:48;9.43;;;8.23;;
7997;SDS011;4044;49.814;7.828;2023-04-06T02:41:13;11.63;;;8.97;;
7997;SDS011;4044;49.814;7.828;2023-04-06T02:43:39;9.63;;;8.20;;
7997;SDS011;4044;49.814;7.828;2023-04-06T02:46:05;10.10;;;8.50;;
7997;SDS011;4044;49.814;7.828;2023-04-06T02:48:30;9.93;;;8.47;;
7997;SDS011;4044;49.814;7.828;2023-04-06T02:50:56;9.80;;;8.47;;
7997;SDS011;4044;49.814;7.828;2023-04-06T02:53:21;10.23;;;8.70;;
7997;SDS011;4044;49.814;7.828;2023-04-06T02:55:47;9.30;;;8.07;;
7997;SDS011;4044;49.814;7.828;2023-04-06T02:58:12;9.50;;;8.60;;
7997;SDS011;4044;49.814;7.828;2023-04-06T03:00:37;11.00;;;8.93;;
7997;SDS011;4044;49.814;7.828;2023-04-06T03:03:03;9.13;;;8.20;;
7997;SDS011;4044;49.814;7.828;2023-04-06T03:05:28;9.80;;;8.77;;
7997;SDS011;4044;49.814;7.828;2023-04-06T03:07:54;9.13;;;8.23;;
7997;SDS011;4044;49.814;7.828;2023-04-06T03:10:20;10.80;;;8.83;;
7997;SDS011;4044;49.814;7.828;2023-04-06T03:12:45;10.60;;;9.17;;
7997;SDS011;4044;49.814;7.828;2023-04-06T03:15:11;10.10;;;9.00;;
7997;SDS011;4044;49.814;7.828;2023-04-06T03:17:36;9.93;;;8.73;;
7997;SDS011;4044;49.814;7.828;2023-04-06T03:20:02;9.03;;;7.63;;
7997;SDS011;4044;49.814;7.828;2023-04-06T03:22:28;9.97;;;8.47;;
7997;SDS011;4044;49.814;7.828;2023-04-06T03:24:54;10.40;;;8.27;;
7997;SDS011;4044;49.814;7.828;2023-04-06T03:27:19;12.73;;;8.80;;
7997;SDS011;4044;49.814;7.828;2023-04-06T03:29:45;9.70;;;8.50;;
7997;SDS011;4044;49.814;7.828;2023-04-06T03:32:10;9.57;;;8.50;;
7997;SDS011;4044;49.814;7.828;2023-04-06T03:34:36;10.50;;;9.17;;
7997;SDS011;4044;49.814;7.828;2023-04-06T03:37:02;11.20;;;9.00;;
7997;SDS011;4044;49.814;7.828;2023-04-06T03:39:28;9.57;;;8.30;;
7997;SDS011;4044;49.814;7.828;2023-04-06T03:41:53;9.27;;;8.27;;
7997;SDS011;4044;49.814;7.828;2023-04-06T03:44:19;9.73;;;8.60;;
7997;SDS011;4044;49.814;7.828;2023-04-06T03:46:44;9.53;;;8.37;;
7997;SDS011;4044;49.814;7.828;2023-04-06T03:49:10;9.27;;;8.20;;
7997;SDS011;4044;49.814;7.828;2023-04-06T03:51:35;11.47;;;9.23;;
7997;SDS011;4044;49.814;7.828;2023-04-06T03:54:01;9.93;;;8.93;;
7997;SDS011;4044;49.814;7.828;2023-04-06T03:56:26;9.03;;;8.13;;
7997;SDS011;4044;49.814;7.828;2023-04-06T03:58:52;9.60;;;8.00;;
7997;SDS011;4044;49.814;7.828;2023-04-06T04:01:18;9.13;;;8.17;;
7997;SDS011;4044;49.814;7.828;2023-04-06T04:03:44;10.73;;;8.60;;
7997;SDS011;4044;49.814;7.828;2023-04-06T04:06:09;9.43;;;8.50;;
7997;SDS011;4044;49.814;7.828;2023-04-06T04:08:35;9.47;;;8.47;;
7997;SDS011;4044;49.814;7.828;2023-04-06T04:11:00;10.97;;;8.97;;
7997;SDS011;4044;49.814;7.828;2023-04-06T04:13:26;9.93;;;8.30;;
7997;SDS011;4044;49.814;7.828;2023-04-06T04:15:51;9.50;;;8.60;;
7997;SDS011;4044;49.814;7.828;2023-04-06T04:18:17;10.67;;;9.47;;
7997;SDS011;4044;49.814;7.828;2023-04-06T04:20:43;12.57;;;10.03;;
7997;SDS011;4044;49.814;7.828;2023-04-06T04:23:09;11.63;;;9.10;;
7997;SDS011;4044;49.814;7.828;2023-04-06T04:25:34;11.97;;;8.67;;
7997;SDS011;4044;49.814;7.828;2023-04-06T04:28:00;9.80;;;8.80;;
7997;SDS011;4044;49.814;7.828;2023-04-06T04:30:26;9.40;;;8.40;;
7997;SDS011;4044;49.814;7.828;2023-04-06T04:32:51;10.97;;;9.20;;
7997;SDS011;4044;49.814;7.828;2023-04-06T04:35:17;12.20;;;9.00;;
7997;SDS011;4044;49.814;7.828;2023-04-06T04:37:42;10.10;;;9.07;;
7997;SDS011;4044;49.814;7.828;2023-04-06T04:40:08;9.57;;;8.67;;
7997;SDS011;4044;49.814;7.828;2023-04-06T04:42:34;10.63;;;9.43;;
7997;SDS011;4044;49.814;7.828;2023-04-06T04:44:59;10.77;;;9.67;;
7997;SDS011;4044;49.814;7.828;2023-04-06T04:47:25;10.87;;;9.47;;
7997;SDS011;4044;49.814;7.828;2023-04-06T04:49:51;10.60;;;9.23;;
7997;SDS011;4044;49.814;7.828;2023-04-06T04:52:16;9.47;;;8.57;;
7997;SDS011;4044;49.814;7.828;2023-04-06T04:54:42;10.60;;;8.97;;
7997;SDS011;4044;49.814;7.828;2023-04-06T04:57:07;10.23;;;8.77;;
7997;SDS011;4044;49.814;7.828;2023-04-06T04:59:33;10.60;;;8.57;;
7997;SDS011;4044;49.814;7.828;2023-04-06T05:01:59;10.07;;;9.07;;
7997;SDS011;4044;49.814;7.828;2023-04-06T05:04:25;9.80;;;8.80;;
7997;SDS011;4044;49.814;7.828;2023-04-06T05:06:51;10.77;;;8.77;;
7997;SDS011;4044;49.814;7.828;2023-04-06T05:09:30;12.07;;;9.67;;
7997;SDS011;4044;49.814;7.828;2023-04-06T05:11:56;10.20;;;9.10;;
7997;SDS011;4044;49.814;7.828;2023-04-06T05:14:22;10.30;;;9.17;;
7997;SDS011;4044;49.814;7.828;2023-04-06T05:16:48;10.97;;;9.60;;
7997;SDS011;4044;49.814;7.828;2023-04-06T05:19:14;11.40;;;9.40;;
7997;SDS011;4044;49.814;7.828;2023-04-06T05:21:39;11.03;;;9.33;;
7997;SDS011;4044;49.814;7.828;2023-04-06T05:24:05;11.03;;;9.93;;
7997;SDS011;4044;49.814;7.828;2023-04-06T05:26:31;11.00;;;9.70;;
7997;SDS011;4044;49.814;7.828;2023-04-06T05:28:56;12.47;;;9.90;;
7997;SDS011;4044;49.814;7.828;2023-04-06T05:31:22;11.33;;;9.83;;
7997;SDS011;4044;49.814;7.828;2023-04-06T05:33:47;13.10;;;9.73;;
7997;SDS011;4044;49.814;7.828;2023-04-06T05:36:13;10.50;;;9.20;;
7997;SDS011;4044;49.814;7.828;2023-04-06T05:38:38;10.53;;;8.80;;
7997;SDS011;4044;49.814;7.828;2023-04-06T05:41:04;9.87;;;8.87;;
7997;SDS011;4044;49.814;7.828;2023-04-06T05:43:30;10.43;;;9.33;;
7997;SDS011;4044;49.814;7.828;2023-04-06T05:45:55;10.47;;;9.23;;
7997;SDS011;4044;49.814;7.828;2023-04-06T05:48:21;12.77;;;9.33;;
7997;SDS011;4044;49.814;7.828;2023-04-06T05:50:48;11.10;;;9.88;;
7997;SDS011;4044;49.814;7.828;2023-04-06T05:53:15;11.97;;;9.03;;
7997;SDS011;4044;49.814;7.828;2023-04-06T05:55:40;10.27;;;9.27;;
7997;SDS011;4044;49.814;7.828;2023-04-06T05:58:06;10.30;;;9.20;;
7997;SDS011;4044;49.814;7.828;2023-04-06T06:00:31;11.93;;;9.57;;
7997;SDS011;4044;49.814;7.828;2023-04-06T06:02:57;12.20;;;9.60;;
7997;SDS011;4044;49.814;7.828;2023-04-06T06:05:23;11.77;;;9.77;;
7997;SDS011;4044;49.814;7.828;2023-04-06T06:07:48;14.23;;;10.20;;
7997;SDS011;4044;49.814;7.828;2023-04-06T06:10:14;10.97;;;9.33;;
7997;SDS011;4044;49.814;7.828;2023-04-06T06:12:40;14.30;;;10.20;;
7997;SDS011;4044;49.814;7.828;2023-04-06T06:15:05;10.27;;;8.90;;
7997;SDS011;4044;49.814;7.828;2023-04-06T06:17:31;12.70;;;9.87;;
7997;SDS011;4044;49.814;7.828;2023-04-06T06:19:58;11.80;;;9.73;;
7997;SDS011;4044;49.814;7.828;2023-04-06T06:22:23;10.73;;;9.53;;
7997;SDS011;4044;49.814;7.828;2023-04-06T06:24:49;10.60;;;9.50;;
7997;SDS011;4044;49.814;7.828;2023-04-06T06:27:15;10.53;;;9.43;;
7997;SDS011;4044;49.814;7.828;2023-04-06T06:29:41;11.60;;;10.40;;
7997;SDS011;4044;49.814;7.828;2023-04-06T06:32:06;12.07;;;10.20;;
7997;SDS011;4044;49.814;7.828;2023-04-06T06:34:34;11.10;;;9.83;;
7997;SDS011;4044;49.814;7.828;2023-04-06T06:37:00;12.17;;;10.37;;
7997;SDS011;4044;49.814;7.828;2023-04-06T06:39:27;14.53;;;11.33;;
7997;SDS011;4044;49.814;7.828;2023-04-06T06:41:53;13.00;;;10.20;;
7997;SDS011;4044;49.814;7.828;2023-04-06T06:44:20;12.30;;;10.73;;
7997;SDS011;4044;49.814;7.828;2023-04-06T06:46:46;11.13;;;9.93;;
7997;SDS011;4044;49.814;7.828;2023-04-06T06:49:12;12.17;;;10.30;;
7997;SDS011;4044;49.814;7.828;2023-04-06T06:51:39;11.57;;;10.40;;
7997;SDS011;4044;49.814;7.828;2023-04-06T06:54:04;11.00;;;9.53;;
7997;SDS011;4044;49.814;7.828;2023-04-06T06:56:30;13.63;;;10.57;;
7997;SDS011;4044;49.814;7.828;2023-04-06T06:58:56;12.60;;;10.70;;
7997;SDS011;4044;49.814;7.828;2023-04-06T07:01:21;17.57;;;11.40;;
7997;SDS011;4044;49.814;7.828;2023-04-06T07:03:47;13.07;;;10.43;;
7997;SDS011;4044;49.814;7.828;2023-04-06T07:06:12;11.57;;;10.37;;
7997;SDS011;4044;49.814;7.828;2023-04-06T07:08:38;12.63;;;10.60;;
7997;SDS011;4044;49.814;7.828;2023-04-06T07:11:03;12.27;;;10.47;;
7997;SDS011;4044;49.814;7.828;2023-04-06T07:13:29;12.13;;;9.80;;
7997;SDS011;4044;49.814;7.828;2023-04-06T07:15:54;11.17;;;9.73;;
7997;SDS011;4044;49.814;7.828;2023-04-06T07:18:20;11.73;;;10.30;;
7997;SDS011;4044;49.814;7.828;2023-04-06T07:20:46;12.57;;;10.27;;
7997;SDS011;4044;49.814;7.828;2023-04-06T07:23:11;11.43;;;9.13;;
7997;SDS011;4044;49.814;7.828;2023-04-06T07:25:37;13.27;;;9.73;;
7997;SDS011;4044;49.814;7.828;2023-04-06T07:28:03;12.40;;;9.60;;
7997;SDS011;4044;49.814;7.828;2023-04-06T07:30:28;13.30;;;10.10;;
7997;SDS011;4044;49.814;7.828;2023-04-06T07:32:54;11.00;;;9.90;;
7997;SDS011;4044;49.814;7.828;2023-04-06T07:35:21;11.67;;;8.97;;
7997;SDS011;4044;49.814;7.828;2023-04-06T07:37:47;11.07;;;8.97;;
7997;SDS011;4044;49.814;7.828;2023-04-06T07:40:13;10.43;;;9.20;;
7997;SDS011;4044;49.814;7.828;2023-04-06T07:42:38;9.80;;;8.77;;
7997;SDS011;4044;49.814;7.828;2023-04-06T07:45:04;9.33;;;8.17;;
7997;SDS011;4044;49.814;7.828;2023-04-06T07:47:30;9.50;;;8.50;;
7997;SDS011;4044;49.814;7.828;2023-04-06T07:49:56;10.53;;;9.03;;
7997;SDS011;4044;49.814;7.828;2023-04-06T07:52:21;9.40;;;8.03;;
7997;SDS011;4044;49.814;7.828;2023-04-06T07:54:47;9.20;;;7.73;;
7997;SDS011;4044;49.814;7.828;2023-04-06T07:57:14;16.77;;;8.10;;
7997;SDS011;4044;49.814;7.828;2023-04-06T07:59:39;10.10;;;7.87;;
7997;SDS011;4044;49.814;7.828;2023-04-06T08:02:05;8.20;;;7.40;;
7997;SDS011;4044;49.814;7.828;2023-04-06T08:04:31;9.07;;;7.40;;
7997;SDS011;4044;49.814;7.828;2023-04-06T08:06:56;8.70;;;7.80;;
7997;SDS011;4044;49.814;7.828;2023-04-06T08:09:22;9.23;;;7.30;;
7997;SDS011;4044;49.814;7.828;2023-04-06T08:11:47;7.83;;;6.80;;
7997;SDS011;4044;49.814;7.828;2023-04-06T08:14:13;8.13;;;7.33;;
7997;SDS011;4044;49.814;7.828;2023-04-06T08:16:40;7.73;;;6.70;;
7997;SDS011;4044;49.814;7.828;2023-04-06T08:19:06;8.60;;;6.83;;
7997;SDS011;4044;49.814;7.828;2023-04-06T08:21:34;8.60;;;7.00;;
7997;SDS011;4044;49.814;7.828;2023-04-06T08:24:00;7.87;;;7.07;;
7997;SDS011;4044;49.814;7.828;2023-04-06T08:26:26;8.00;;;7.20;;
7997;SDS011;4044;49.814;7.828;2023-04-06T08:28:52;7.80;;;7.00;;
7997;SDS011;4044;49.814;7.828;2023-04-06T08:31:17;17.53;;;6.83;;
7997;SDS011;4044;49.814;7.828;2023-04-06T08:33:43;6.83;;;6.13;;
7997;SDS011;4044;49.814;7.828;2023-04-06T08:36:12;6.93;;;6.23;;
7997;SDS011;4044;49.814;7.828;2023-04-06T08:38:39;7.70;;;6.00;;
7997;SDS011;4044;49.814;7.828;2023-04-06T08:41:12;5.83;;;5.27;;
7997;SDS011;4044;49.814;7.828;2023-04-06T08:43:58;6.80;;;6.03;;
7997;SDS011;4044;49.814;7.828;2023-04-06T08:46:24;7.57;;;6.27;;
7997;SDS011;4044;49.814;7.828;2023-04-06T08:48:57;6.53;;;5.70;;
7997;SDS011;4044;49.814;7.828;2023-04-06T08:51:24;6.73;;;5.63;;
7997;SDS011;4044;49.814;7.828;2023-04-06T08:53:53;6.47;;;5.63;;
7997;SDS011;4044;49.814;7.828;2023-04-06T08:56:20;6.70;;;6.00;;
7997;SDS011;4044;49.814;7.828;2023-04-06T08:58:47;8.07;;;5.97;;
7997;SDS011;4044;49.814;7.828;2023-04-06T09:01:13;7.30;;;6.43;;
7997;SDS011;4044;49.814;7.828;2023-04-06T09:03:41;7.63;;;6.23;;
7997;SDS011;4044;49.814;7.828;2023-04-06T09:06:09;8.23;;;5.97;;
7997;SDS011;4044;49.814;7.828;2023-04-06T09:08:35;6.77;;;6.17;;
7997;SDS011;4044;49.814;7.828;2023-04-06T09:11:03;8.43;;;6.20;;
7997;SDS011;4044;49.814;7.828;2023-04-06T09:13:29;10.77;;;6.07;;
7997;SDS011;4044;49.814;7.828;2023-04-06T09:15:58;7.43;;;6.10;;
7997;SDS011;4044;49.814;7.828;2023-04-06T09:18:29;6.50;;;5.87;;
7997;SDS011;4044;49.814;7.828;2023-04-06T09:21:02;8.17;;;6.03;;
7997;SDS011;4044;49.814;7.828;2023-04-06T09:23:29;8.00;;;6.17;;
7997;SDS011;4044;49.814;7.828;2023-04-06T09:26:08;7.70;;;5.77;;
7997;SDS011;4044;49.814;7.828;2023-04-06T09:28:42;8.80;;;5.97;;
7997;SDS011;4044;49.814;7.828;2023-04-06T09:31:26;7.23;;;6.37;;
7997;SDS011;4044;49.814;7.828;2023-04-06T09:33:53;6.90;;;5.63;;
7997;SDS011;4044;49.814;7.828;2023-04-06T09:36:20;7.17;;;5.77;;
7997;SDS011;4044;49.814;7.828;2023-04-06T09:38:58;7.03;;;6.33;;
7997;SDS011;4044;49.814;7.828;2023-04-06T09:41:27;6.63;;;5.93;;
7997;SDS011;4044;49.814;7.828;2023-04-06T09:44:03;8.47;;;6.37;;
7997;SDS011;4044;49.814;7.828;2023-04-06T09:46:40;7.60;;;6.10;;
7997;SDS011;4044;49.814;7.828;2023-04-06T09:49:07;8.83;;;5.77;;
7997;SDS011;4044;49.814;7.828;2023-04-06T09:51:46;6.60;;;6.00;;
7997;SDS011;4044;49.814;7.828;2023-04-06T09:54:21;8.77;;;6.37;;
7997;SDS011;4044;49.814;7.828;2023-04-06T09:56:51;7.10;;;6.33;;
7997;SDS011;4044;49.814;7.828;2023-04-06T09:59:18;6.90;;;6.17;;
7997;SDS011;4044;49.814;7.828;2023-04-06T10:01:52;6.37;;;5.77;;
7997;SDS011;4044;49.814;7.828;2023-04-06T10:04:29;8.10;;;6.13;;
7997;SDS011;4044;49.814;7.828;2023-04-06T10:06:58;7.60;;;6.30;;
7997;SDS011;4044;49.814;7.828;2023-04-06T10:09:25;6.23;;;5.57;;
7997;SDS011;4044;49.814;7.828;2023-04-06T10:12:00;7.37;;;6.27;;
7997;SDS011;4044;49.814;7.828;2023-04-06T10:14:32;7.53;;;6.30;;
7997;SDS011;4044;49.814;7.828;2023-04-06T10:17:03;7.67;;;5.60;;
7997;SDS011;4044;49.814;7.828;2023-04-06T10:19:32;9.20;;;5.77;;
7997;SDS011;4044;49.814;7.828;2023-04-06T10:22:28;7.30;;;5.80;;
7997;SDS011;4044;49.814;7.828;2023-04-06T10:25:00;7.17;;;5.77;;
7997;SDS011;4044;49.814;7.828;2023-04-06T10:27:29;6.80;;;5.67;;
7997;SDS011;4044;49.814;7.828;2023-04-06T10:30:00;6.77;;;5.90;;
7997;SDS011;4044;49.814;7.828;2023-04-06T10:32:37;7.03;;;6.30;;
7997;SDS011;4044;49.814;7.828;2023-04-06T10:35:10;6.00;;;5.50;;
7997;SDS011;4044;49.814;7.828;2023-04-06T10:37:48;6.60;;;5.90;;
7997;SDS011;4044;49.814;7.828;2023-04-06T10:40:19;7.27;;;6.13;;
7997;SDS011;4044;49.814;7.828;2023-04-06T10:42:52;8.87;;;5.83;;
7997;SDS011;4044;49.814;7.828;2023-04-06T10:45:20;6.00;;;5.37;;
7997;SDS011;4044;49.814;7.828;2023-04-06T10:47:50;6.30;;;5.70;;
7997;SDS011;4044;49.814;7.828;2023-04-06T10:50:18;6.13;;;5.53;;
7997;SDS011;4044;49.814;7.828;2023-04-06T10:52:44;6.73;;;5.57;;
7997;SDS011;4044;49.814;7.828;2023-04-06T10:55:10;6.83;;;5.90;;
7997;SDS011;4044;49.814;7.828;2023-04-06T10:57:38;5.77;;;5.27;;
7997;SDS011;4044;49.814;7.828;2023-04-06T11:00:07;6.78;;;5.85;;
7997;SDS011;4044;49.814;7.828;2023-04-06T11:02:34;6.80;;;5.43;;
7997;SDS011;4044;49.814;7.828;2023-04-06T11:05:02;6.05;;;5.45;;
7997;SDS011;4044;49.814;7.828;2023-04-06T11:07:28;7.32;;;5.45;;
7997;SDS011;4044;49.814;7.828;2023-04-06T11:09:55;7.75;;;5.80;;
7997;SDS011;4044;49.814;7.828;2023-04-06T11:12:25;6.53;;;5.82;;
7997;SDS011;4044;49.814;7.828;2023-04-06T11:14:56;6.28;;;5.60;;
7997;SDS011;4044;49.814;7.828;2023-04-06T11:17:28;6.25;;;5.65;;
7997;SDS011;4044;49.814;7.828;2023-04-06T11:19:54;6.30;;;5.70;;
7997;SDS011;4044;49.814;7.828;2023-04-06T11:22:20;6.28;;;5.68;;
7997;SDS011;4044;49.814;7.828;2023-04-06T11:24:46;6.35;;;5.68;;
7997;SDS011;4044;49.814;7.828;2023-04-06T11:27:11;5.80;;;5.15;;
7997;SDS011;4044;49.814;7.828;2023-04-06T11:29:37;6.10;;;5.50;;
7997;SDS011;4044;49.814;7.828;2023-04-06T11:32:04;6.40;;;5.55;;
7997;SDS011;4044;49.814;7.828;2023-04-06T11:34:34;6.53;;;5.80;;
7997;SDS011;4044;49.814;7.828;2023-04-06T11:37:02;6.68;;;5.97;;
7997;SDS011;4044;49.814;7.828;2023-04-06T11:39:32;6.80;;;5.32;;
7997;SDS011;4044;49.814;7.828;2023-04-06T11:42:02;6.32;;;4.82;;
7997;SDS011;4044;49.814;7.828;2023-04-06T11:44:46;5.63;;;5.03;;
7997;SDS011;4044;49.814;7.828;2023-04-06T11:47:11;6.68;;;4.63;;
7997;SDS011;4044;49.814;7.828;2023-04-06T11:49:38;5.82;;;5.25;;
7997;SDS011;4044;49.814;7.828;2023-04-06T11:52:14;5.80;;;5.30;;
7997;SDS011;4044;49.814;7.828;2023-04-06T11:54:48;6.63;;;5.93;;
7997;SDS011;4044;49.814;7.828;2023-04-06T11:57:15;7.10;;;5.90;;
7997;SDS011;4044;49.814;7.828;2023-04-06T11:59:41;7.95;;;6.05;;
7997;SDS011;4044;49.814;7.828;2023-04-06T12:02:07;6.13;;;5.53;;
7997;SDS011;4044;49.814;7.828;2023-04-06T12:04:32;7.00;;;6.18;;
7997;SDS011;4044;49.814;7.828;2023-04-06T12:06:58;7.47;;;6.22;;
7997;SDS011;4044;49.814;7.828;2023-04-06T12:09:24;6.78;;;6.00;;
7997;SDS011;4044;49.814;7.828;2023-04-06T12:11:50;7.82;;;6.53;;
7997;SDS011;4044;49.814;7.828;2023-04-06T12:14:15;7.43;;;5.70;;
7997;SDS011;4044;49.814;7.828;2023-04-06T12:16:41;6.53;;;5.32;;
7997;SDS011;4044;49.814;7.828;2023-04-06T12:19:07;8.18;;;6.45;;
7997;SDS011;4044;49.814;7.828;2023-04-06T12:21:33;6.80;;;6.10;;
7997;SDS011;4044;49.814;7.828;2023-04-06T12:24:00;7.75;;;5.65;;
7997;SDS011;4044;49.814;7.828;2023-04-06T12:26:26;6.25;;;5.65;;
7997;SDS011;4044;49.814;7.828;2023-04-06T12:28:52;7.93;;;5.70;;
7997;SDS011;4044;49.814;7.828;2023-04-06T12:31:19;6.13;;;5.53;;
7997;SDS011;4044;49.814;7.828;2023-04-06T12:33:46;7.25;;;6.25;;
7997;SDS011;4044;49.814;7.828;2023-04-06T12:36:13;6.88;;;6.18;;
7997;SDS011;4044;49.814;7.828;2023-04-06T12:38:40;6.68;;;5.97;;
7997;SDS011;4044;49.814;7.828;2023-04-06T12:41:10;6.50;;;5.82;;
7997;SDS011;4044;49.814;7.828;2023-04-06T12:43:36;8.55;;;5.97;;
7997;SDS011;4044;49.814;7.828;2023-04-06T12:46:02;6.28;;;5.38;;
7997;SDS011;4044;49.814;7.828;2023-04-06T12:48:28;6.88;;;6.10;;
7997;SDS011;4044;49.814;7.828;2023-04-06T12:51:00;6.63;;;6.03;;
7997;SDS011;4044;49.814;7.828;2023-04-06T12:53:27;6.85;;;5.90;;
7997;SDS011;4044;49.814;7.828;2023-04-06T12:55:56;7.82;;;6.55;;
7997;SDS011;4044;49.814;7.828;2023-04-06T12:58:22;8.57;;;6.88;;
7997;SDS011;4044;49.814;7.828;2023-04-06T13:00:49;8.05;;;6.60;;
7997;SDS011;4044;49.814;7.828;2023-04-06T13:03:15;8.57;;;6.35;;
7997;SDS011;4044;49.814;7.828;2023-04-06T13:05:48;7.05;;;6.35;;
7997;SDS011;4044;49.814;7.828;2023-04-06T13:08:15;8.00;;;6.70;;
7997;SDS011;4044;49.814;7.828;2023-04-06T13:10:43;7.68;;;6.47;;
7997;SDS011;4044;49.814;7.828;2023-04-06T13:13:09;7.22;;;6.10;;
7997;SDS011;4044;49.814;7.828;2023-04-06T13:15:35;7.78;;;6.10;;
7997;SDS011;4044;49.814;7.828;2023-04-06T13:18:01;6.97;;;5.90;;
7997;SDS011;4044;49.814;7.828;2023-04-06T13:20:27;8.25;;;6.28;;
7997;SDS011;4044;49.814;7.828;2023-04-06T13:22:53;6.47;;;5.88;;
7997;SDS011;4044;49.814;7.828;2023-04-06T13:25:18;6.78;;;6.13;;
7997;SDS011;4044;49.814;7.828;2023-04-06T13:27:44;7.15;;;6.10;;
7997;SDS011;4044;49.814;7.828;2023-04-06T13:30:12;6.43;;;5.82;;
7997;SDS011;4044;49.814;7.828;2023-04-06T13:32:38;6.70;;;6.07;;
7997;SDS011;4044;49.814;7.828;2023-04-06T13:35:04;6.85;;;6.15;;
7997;SDS011;4044;49.814;7.828;2023-04-06T13:37:31;7.13;;;5.85;;
7997;SDS011;4044;49.814;7.828;2023-04-06T13:39:57;7.70;;;5.68;;
7997;SDS011;4044;49.814;7.828;2023-04-06T13:42:22;7.82;;;5.97;;
7997;SDS011;4044;49.814;7.828;2023-04-06T13:44:48;7.03;;;6.18;;
7997;SDS011;4044;49.814;7.828;2023-04-06T13:47:15;7.47;;;6.05;;
7997;SDS011;4044;49.814;7.828;2023-04-06T13:49:41;6.55;;;5.90;;
7997;SDS011;4044;49.814;7.828;2023-04-06T13:52:07;7.40;;;6.57;;
7997;SDS011;4044;49.814;7.828;2023-04-06T13:54:32;7.10;;;6.47;;
7997;SDS011;4044;49.814;7.828;2023-04-06T13:56:58;6.70;;;6.00;;
7997;SDS011;4044;49.814;7.828;2023-04-06T13:59:23;8.23;;;6.13;;
7997;SDS011;4044;49.814;7.828;2023-04-06T14:01:49;7.03;;;6.03;;
7997;SDS011;4044;49.814;7.828;2023-04-06T14:04:14;7.18;;;5.80;;
7997;SDS011;4044;49.814;7.828;2023-04-06T14:06:40;6.63;;;5.80;;
7997;SDS011;4044;49.814;7.828;2023-04-06T14:09:05;7.13;;;6.07;;
7997;SDS011;4044;49.814;7.828;2023-04-06T14:11:31;6.15;;;5.53;;
7997;SDS011;4044;49.814;7.828;2023-04-06T14:13:57;7.85;;;6.03;;
7997;SDS011;4044;49.814;7.828;2023-04-06T14:16:23;6.25;;;5.40;;
7997;SDS011;4044;49.814;7.828;2023-04-06T14:18:49;6.05;;;5.28;;
7997;SDS011;4044;49.814;7.828;2023-04-06T14:21:16;5.55;;;5.05;;
7997;SDS011;4044;49.814;7.828;2023-04-06T14:23:41;7.05;;;5.65;;
7997;SDS011;4044;49.814;7.828;2023-04-06T14:26:07;6.13;;;5.50;;
7997;SDS011;4044;49.814;7.828;2023-04-06T14:28:33;6.10;;;5.43;;
7997;SDS011;4044;49.814;7.828;2023-04-06T14:31:01;7.15;;;6.03;;
7997;SDS011;4044;49.814;7.828;2023-04-06T14:33:33;7.13;;;5.57;;
7997;SDS011;4044;49.814;7.828;2023-04-06T14:36:02;7.78;;;5.75;;
7997;SDS011;4044;49.814;7.828;2023-04-06T14:38:28;7.13;;;6.00;;
7997;SDS011;4044;49.814;7.828;2023-04-06T14:40:53;6.95;;;5.82;;
7997;SDS011;4044;49.814;7.828;2023-04-06T14:43:20;6.20;;;5.43;;
7997;SDS011;4044;49.814;7.828;2023-04-06T14:45:46;6.90;;;5.15;;
7997;SDS011;4044;49.814;7.828;2023-04-06T14:48:12;6.55;;;5.32;;
7997;SDS011;4044;49.814;7.828;2023-04-06T14:50:38;5.78;;;4.88;;
7997;SDS011;4044;49.814;7.828;2023-04-06T14:53:04;4.80;;;4.30;;
7997;SDS011;4044;49.814;7.828;2023-04-06T14:55:30;4.85;;;4.45;;
7997;SDS011;4044;49.814;7.828;2023-04-06T14:57:55;5.28;;;4.50;;
7997;SDS011;4044;49.814;7.828;2023-04-06T15:00:21;4.70;;;4.30;;
7997;SDS011;4044;49.814;7.828;2023-04-06T15:02:47;5.57;;;4.45;;
7997;SDS011;4044;49.814;7.828;2023-04-06T15:05:12;4.55;;;4.07;;
7997;SDS011;4044;49.814;7.828;2023-04-06T15:07:38;4.53;;;4.13;;